Cold Spring, New Jersey
Current Conditions -  °F | °C
As of 5:35 AM on Sunday 25 Jan 2015 (Local Time) from KWWD Reporting Station
Clear Clear  
Wind Chill: 28°   Ceiling: Unl
Heat Index: 36°   Visibility: 10mi
Dew Point: 27°   Wind: 12mph
Humidity: 70%   Direction: 280°W
Pressure: 29.74"   Gusts: NA
Location:  38.9876°N, 74.9167°W
Report Text: KWWD 251035Z AUTO 28010KT 10SM CLR 02/M03 A2974 RMK AO1
Loading
Personal Weather Stations






























Interactive Weather Map New forecast layout! Learn more

10-Day Weather Forecast

Advertisements
Track Severe Weather on mobile